createdAt,value
2023-04-26T00:02:06.235Z,4.90
2023-04-26T00:04:34.203Z,5.00
2023-04-26T00:07:03.403Z,4.77
2023-04-26T00:09:32.767Z,4.30
2023-04-26T00:11:59.797Z,4.30
2023-04-26T00:14:26.570Z,4.03
2023-04-26T00:16:58.051Z,3.60
2023-04-26T00:19:24.920Z,3.80
2023-04-26T00:21:54.216Z,3.33
2023-04-26T00:24:25.355Z,3.33
2023-04-26T00:26:58.059Z,3.43
2023-04-26T00:29:24.828Z,2.80
2023-04-26T00:31:54.085Z,3.13
2023-04-26T00:34:23.465Z,2.27
2023-04-26T00:36:50.310Z,2.47
2023-04-26T00:39:19.623Z,2.57
2023-04-26T00:41:46.448Z,1.97
2023-04-26T00:44:15.418Z,1.97
2023-04-26T00:46:42.253Z,1.70
2023-04-26T00:49:15.869Z,2.10
2023-04-26T00:51:45.914Z,1.87
2023-04-26T00:54:15.944Z,1.77
2023-04-26T00:56:42.763Z,1.60
2023-04-26T00:59:11.645Z,1.80
2023-04-26T01:01:38.894Z,2.00
2023-04-26T01:04:08.411Z,2.00
2023-04-26T01:06:36.101Z,1.97
2023-04-26T01:09:10.100Z,1.83
2023-04-26T01:11:39.148Z,2.03
2023-04-26T01:14:06.136Z,2.27
2023-04-26T01:16:38.476Z,2.10
2023-04-26T01:19:15.196Z,2.10
2023-04-26T01:21:44.636Z,1.73
2023-04-26T01:24:12.807Z,2.20
2023-04-26T01:26:45.680Z,2.27
2023-04-26T01:29:22.241Z,2.00
2023-04-26T01:31:49.112Z,2.67
2023-04-26T01:34:18.527Z,2.53
2023-04-26T01:36:47.421Z,2.13
2023-04-26T01:39:14.239Z,2.73
2023-04-26T01:41:43.452Z,2.70
2023-04-26T01:44:12.702Z,2.57
2023-04-26T01:46:39.608Z,2.50
2023-04-26T01:49:06.569Z,2.70
2023-04-26T01:51:34.373Z,2.80
2023-04-26T01:54:01.184Z,2.60
2023-04-26T01:56:28.058Z,2.40
2023-04-26T01:58:57.543Z,2.37
2023-04-26T02:01:24.471Z,2.57
2023-04-26T02:03:56.154Z,2.83
2023-04-26T02:06:22.898Z,2.37
2023-04-26T02:08:52.378Z,2.87
2023-04-26T02:11:19.429Z,2.57
2023-04-26T02:13:46.239Z,2.87
2023-04-26T02:16:13.063Z,2.40
2023-04-26T02:18:41.685Z,2.60
2023-04-26T02:21:09.316Z,2.77
2023-04-26T02:23:36.102Z,2.60
2023-04-26T02:26:03.393Z,2.60
2023-04-26T02:28:30.474Z,2.90
2023-04-26T02:30:58.546Z,2.50
2023-04-26T02:33:27.843Z,2.37
2023-04-26T02:35:54.701Z,2.00
2023-04-26T02:38:21.568Z,2.20
2023-04-26T02:40:48.387Z,2.13
2023-04-26T02:43:15.183Z,2.10
2023-04-26T02:45:44.835Z,2.17
2023-04-26T02:48:11.595Z,1.97
2023-04-26T02:50:38.333Z,2.50
2023-04-26T02:53:07.235Z,2.50
2023-04-26T02:55:38.010Z,2.67
2023-04-26T02:58:04.809Z,2.83
2023-04-26T03:00:31.673Z,3.53
2023-04-26T03:02:58.582Z,3.70
2023-04-26T03:05:25.777Z,3.73
2023-04-26T03:07:52.653Z,4.40
2023-04-26T03:10:19.378Z,3.80
2023-04-26T03:12:46.161Z,4.03
2023-04-26T03:15:12.934Z,4.20
2023-04-26T03:17:44.415Z,4.70
2023-04-26T03:20:14.288Z,4.70
2023-04-26T03:22:41.183Z,4.80
2023-04-26T03:25:10.651Z,4.23
2023-04-26T03:27:37.393Z,4.93
2023-04-26T03:30:04.500Z,5.77
2023-04-26T03:32:31.324Z,4.70
2023-04-26T03:34:58.641Z,4.80
2023-04-26T03:37:25.533Z,4.33
2023-04-26T03:39:53.766Z,4.67
2023-04-26T03:42:20.996Z,5.07
2023-04-26T03:44:50.291Z,4.80
2023-04-26T03:47:19.590Z,4.73
2023-04-26T03:49:46.353Z,5.23
2023-04-26T03:52:13.699Z,5.23
2023-04-26T03:54:40.694Z,5.30
2023-04-26T03:57:07.522Z,5.30
2023-04-26T03:59:35.377Z,5.10
2023-04-26T04:02:02.193Z,4.27
2023-04-26T04:04:29.107Z,4.40
2023-04-26T04:06:56.112Z,4.87
2023-04-26T04:09:25.365Z,5.33
2023-04-26T04:11:52.490Z,4.97
2023-04-26T04:14:19.334Z,4.90
2023-04-26T04:16:46.506Z,4.87
2023-04-26T04:19:15.478Z,5.07
2023-04-26T04:21:45.638Z,4.87
2023-04-26T04:24:12.946Z,5.27
2023-04-26T04:26:42.495Z,5.50
2023-04-26T04:29:09.455Z,5.37
2023-04-26T04:31:40.118Z,6.63
2023-04-26T04:34:07.024Z,7.23
2023-04-26T04:36:36.252Z,6.17
2023-04-26T04:39:04.204Z,5.90
2023-04-26T04:41:32.355Z,6.37
2023-04-26T04:44:00.477Z,6.57
2023-04-26T04:46:29.901Z,6.83
2023-04-26T04:48:56.738Z,6.33
2023-04-26T04:51:23.558Z,6.93
2023-04-26T04:53:51.158Z,7.20
2023-04-26T04:56:18.559Z,7.40
2023-04-26T04:58:45.380Z,6.60
2023-04-26T05:01:12.222Z,6.43
2023-04-26T05:03:46.191Z,6.53
2023-04-26T05:06:13.041Z,6.80
2023-04-26T05:08:39.768Z,6.27
2023-04-26T05:11:09.662Z,6.53
2023-04-26T05:13:36.422Z,6.77
2023-04-26T05:16:05.670Z,6.40
2023-04-26T05:18:37.070Z,6.07
2023-04-26T05:21:04.005Z,5.60
2023-04-26T05:23:34.392Z,5.97
2023-04-26T05:26:07.285Z,5.83
2023-04-26T05:28:36.478Z,5.53
2023-04-26T05:31:04.237Z,5.63
2023-04-26T05:33:34.064Z,5.50
2023-04-26T05:36:03.068Z,5.40
2023-04-26T05:38:30.419Z,5.33
2023-04-26T05:40:57.188Z,5.27
2023-04-26T05:43:23.957Z,5.27
2023-04-26T05:45:54.474Z,5.20
2023-04-26T05:48:21.859Z,5.40
2023-04-26T05:50:49.076Z,5.47
2023-04-26T05:53:19.183Z,4.70
2023-04-26T05:55:46.107Z,5.67
2023-04-26T05:58:12.927Z,5.27
2023-04-26T06:00:39.757Z,4.53
2023-04-26T06:03:09.198Z,4.70
2023-04-26T06:05:38.378Z,4.00
2023-04-26T06:08:05.584Z,3.90
2023-04-26T06:10:32.537Z,3.90
2023-04-26T06:12:59.553Z,4.63
2023-04-26T06:15:27.807Z,3.80
2023-04-26T06:17:54.683Z,3.87
2023-04-26T06:20:21.757Z,4.23
2023-04-26T06:22:48.521Z,4.17
2023-04-26T06:25:15.550Z,4.17
2023-04-26T06:27:44.664Z,4.40
2023-04-26T06:30:11.633Z,4.43
2023-04-26T06:32:40.544Z,4.80
2023-04-26T06:35:07.784Z,4.30
2023-04-26T06:37:34.832Z,4.30
2023-04-26T06:40:03.801Z,3.77
2023-04-26T06:42:33.061Z,4.10
2023-04-26T06:45:04.571Z,3.83
2023-04-26T06:47:31.580Z,3.07
2023-04-26T06:50:00.897Z,3.97
2023-04-26T06:52:30.079Z,3.37
2023-04-26T06:55:03.417Z,3.57
2023-04-26T06:57:30.288Z,3.60
2023-04-26T06:59:59.520Z,3.43
2023-04-26T07:02:26.509Z,3.60
2023-04-26T07:04:53.667Z,3.43
2023-04-26T07:07:22.840Z,3.27
2023-04-26T07:09:52.550Z,3.10
2023-04-26T07:12:19.330Z,3.40
2023-04-26T07:14:46.269Z,2.83
2023-04-26T07:17:13.288Z,3.23
2023-04-26T07:19:40.063Z,3.07
2023-04-26T07:22:07.095Z,3.20
2023-04-26T07:24:33.840Z,3.23
2023-04-26T07:27:01.212Z,3.50
2023-04-26T07:29:28.040Z,3.37
2023-04-26T07:31:54.848Z,3.23
2023-04-26T07:34:24.012Z,3.00
2023-04-26T07:36:50.817Z,2.90
2023-04-26T07:39:19.886Z,2.97
2023-04-26T07:41:46.745Z,2.60
2023-04-26T07:44:13.557Z,3.10
2023-04-26T07:46:40.346Z,2.80
2023-04-26T07:49:07.237Z,3.27
2023-04-26T07:51:35.823Z,3.17
2023-04-26T07:54:02.582Z,3.47
2023-04-26T07:56:29.341Z,2.70
2023-04-26T07:58:56.304Z,3.10
2023-04-26T08:01:23.084Z,2.77
2023-04-26T08:03:50.245Z,2.50
2023-04-26T08:06:19.828Z,2.47
2023-04-26T08:08:50.831Z,3.30
2023-04-26T08:11:18.332Z,2.10
2023-04-26T08:13:45.212Z,2.87
2023-04-26T08:16:14.256Z,2.90
2023-04-26T08:18:46.094Z,2.73
2023-04-26T08:21:13.806Z,4.90
2023-04-26T08:23:42.923Z,3.33
2023-04-26T08:26:09.682Z,3.03
2023-04-26T08:28:36.509Z,2.67
2023-04-26T08:31:05.604Z,3.53
2023-04-26T08:33:32.459Z,3.20
2023-04-26T08:36:01.248Z,2.70
2023-04-26T08:38:29.622Z,2.90
2023-04-26T08:40:58.777Z,2.87
2023-04-26T08:43:27.500Z,2.60
2023-04-26T08:45:55.433Z,2.53
2023-04-26T08:48:22.394Z,2.70
2023-04-26T08:50:49.132Z,2.70
2023-04-26T08:53:18.531Z,2.70
2023-04-26T08:55:49.467Z,2.30
2023-04-26T08:58:20.429Z,2.30
2023-04-26T09:00:49.439Z,2.53
2023-04-26T09:03:18.874Z,2.53
2023-04-26T09:05:46.024Z,2.70
2023-04-26T09:08:18.980Z,2.53
2023-04-26T09:10:47.981Z,2.67
2023-04-26T09:13:14.848Z,2.57
2023-04-26T09:15:42.130Z,2.50
2023-04-26T09:18:21.599Z,2.23
2023-04-26T09:21:03.776Z,2.30
2023-04-26T09:23:30.986Z,1.90
2023-04-26T09:26:14.898Z,2.00
2023-04-26T09:28:42.766Z,2.17
2023-04-26T09:31:13.132Z,2.10
2023-04-26T09:34:02.315Z,1.60
2023-04-26T09:36:32.056Z,1.97
2023-04-26T09:38:59.100Z,2.23
2023-04-26T09:41:45.800Z,2.23
2023-04-26T09:44:23.427Z,2.63
2023-04-26T09:47:07.395Z,2.13
2023-04-26T09:49:43.608Z,2.10
2023-04-26T09:52:10.589Z,2.30
2023-04-26T09:54:50.189Z,1.80
2023-04-26T09:57:17.580Z,1.93
2023-04-26T09:59:55.547Z,2.60
2023-04-26T10:02:23.983Z,2.17
2023-04-26T10:04:52.759Z,1.80
2023-04-26T10:07:23.098Z,1.70
2023-04-26T10:09:50.179Z,2.33
2023-04-26T10:12:18.553Z,1.80
2023-04-26T10:14:48.515Z,1.43
2023-04-26T10:17:15.357Z,1.90
2023-04-26T10:19:46.626Z,2.10
2023-04-26T10:22:20.407Z,1.37
2023-04-26T10:24:49.681Z,1.73
2023-04-26T10:27:16.450Z,1.90
2023-04-26T10:29:55.154Z,1.80
2023-04-26T10:32:26.745Z,2.00
2023-04-26T10:35:17.261Z,1.90
2023-04-26T10:38:02.593Z,1.60
2023-04-26T10:40:37.343Z,1.83
2023-04-26T10:43:16.173Z,1.97
2023-04-26T10:45:46.512Z,2.23
2023-04-26T10:48:20.792Z,1.90
2023-04-26T10:51:05.605Z,2.30
2023-04-26T10:53:35.715Z,1.90
2023-04-26T10:56:02.467Z,2.23
2023-04-26T10:58:35.213Z,2.13
2023-04-26T11:01:08.787Z,1.90
2023-04-26T11:03:36.109Z,1.90
2023-04-26T11:06:15.694Z,1.90
2023-04-26T11:08:43.279Z,1.80
2023-04-26T11:11:13.587Z,2.37
2023-04-26T11:13:41.984Z,2.23
2023-04-26T11:16:15.066Z,2.10
2023-04-26T11:18:46.201Z,2.20
2023-04-26T11:21:15.305Z,2.37
2023-04-26T11:23:42.090Z,2.30
2023-04-26T11:26:09.095Z,2.17
2023-04-26T11:28:37.332Z,2.37
2023-04-26T11:31:04.597Z,2.40
2023-04-26T11:33:31.514Z,2.17
2023-04-26T11:35:58.488Z,2.10
2023-04-26T11:38:30.555Z,2.20
2023-04-26T11:40:58.714Z,2.40
2023-04-26T11:43:34.587Z,2.43
2023-04-26T11:46:01.591Z,2.23
2023-04-26T11:48:31.068Z,2.40
2023-04-26T11:50:59.121Z,2.30
2023-04-26T11:53:26.099Z,2.37
2023-04-26T11:55:52.855Z,2.60
2023-04-26T11:58:19.793Z,2.33
2023-04-26T12:01:00.396Z,2.57
2023-04-26T12:03:35.558Z,1.97
2023-04-26T12:06:02.540Z,2.60
2023-04-26T12:08:32.200Z,2.17
2023-04-26T12:11:02.322Z,2.27
2023-04-26T12:13:32.996Z,1.80
2023-04-26T12:15:59.812Z,2.17
2023-04-26T12:18:32.929Z,2.17
2023-04-26T12:20:59.779Z,2.20
2023-04-26T12:23:26.684Z,2.07
2023-04-26T12:25:56.683Z,2.50
2023-04-26T12:28:23.945Z,2.13
2023-04-26T12:30:53.271Z,2.27
2023-04-26T12:33:23.171Z,2.33
2023-04-26T12:35:50.752Z,2.33
2023-04-26T12:38:18.896Z,2.23
2023-04-26T12:40:45.837Z,2.23
2023-04-26T12:43:12.970Z,2.40
2023-04-26T12:45:42.312Z,2.40
2023-04-26T12:48:09.178Z,2.07
2023-04-26T12:50:38.468Z,2.53
2023-04-26T12:53:05.303Z,2.30
2023-04-26T12:55:32.937Z,1.97
2023-04-26T12:58:02.519Z,1.97
2023-04-26T13:00:29.396Z,1.97
2023-04-26T13:02:56.321Z,1.87
2023-04-26T13:05:24.930Z,1.73
2023-04-26T13:07:54.218Z,2.20
2023-04-26T13:10:21.194Z,2.20
2023-04-26T13:12:47.973Z,2.07
2023-04-26T13:15:17.932Z,1.90
2023-04-26T13:17:47.585Z,2.17
2023-04-26T13:20:16.864Z,2.20
2023-04-26T13:22:43.788Z,2.07
2023-04-26T13:25:11.227Z,1.70
2023-04-26T13:27:37.992Z,2.10
2023-04-26T13:30:08.580Z,1.87
2023-04-26T13:32:37.519Z,2.17
2023-04-26T13:35:04.612Z,1.80
2023-04-26T13:37:33.499Z,1.77
2023-04-26T13:40:02.497Z,2.10
2023-04-26T13:42:29.244Z,2.20
2023-04-26T13:44:56.048Z,2.00
2023-04-26T13:47:22.945Z,2.40
2023-04-26T13:49:49.807Z,2.40
2023-04-26T13:52:16.593Z,2.00
2023-04-26T13:54:43.405Z,2.13
2023-04-26T13:57:12.548Z,2.17
2023-04-26T13:59:40.579Z,2.17
2023-04-26T14:02:10.675Z,2.00
2023-04-26T14:04:37.860Z,1.80
2023-04-26T14:07:07.104Z,1.90
2023-04-26T14:09:36.436Z,1.80
2023-04-26T14:12:08.434Z,2.00
2023-04-26T14:14:35.847Z,1.90
2023-04-26T14:17:02.622Z,2.23
2023-04-26T14:19:29.666Z,2.17
2023-04-26T14:21:56.413Z,2.27
2023-04-26T14:24:23.240Z,2.10
2023-04-26T14:26:52.303Z,2.07
2023-04-26T14:29:21.460Z,1.67
2023-04-26T14:31:48.245Z,2.30
2023-04-26T14:34:17.654Z,1.83
2023-04-26T14:36:44.406Z,2.07
2023-04-26T14:39:13.274Z,1.93
2023-04-26T14:41:40.077Z,2.63
2023-04-26T14:44:09.348Z,2.17
2023-04-26T14:46:37.215Z,2.50
2023-04-26T14:49:04.276Z,2.40
2023-04-26T14:51:33.315Z,2.20
2023-04-26T14:54:02.285Z,2.10
2023-04-26T14:56:35.503Z,2.70
2023-04-26T14:59:04.688Z,3.07
2023-04-26T15:01:33.715Z,2.40
2023-04-26T15:04:01.466Z,2.10
2023-04-26T15:06:29.069Z,2.20
2023-04-26T15:08:55.948Z,2.60
2023-04-26T15:11:27.429Z,2.70
2023-04-26T15:13:54.200Z,2.40
2023-04-26T15:16:21.025Z,2.60
2023-04-26T15:18:50.124Z,2.43
2023-04-26T15:21:19.777Z,2.63
2023-04-26T15:23:46.710Z,2.20
2023-04-26T15:26:14.084Z,2.37
2023-04-26T15:28:41.263Z,2.40
2023-04-26T15:31:09.152Z,2.40
2023-04-26T15:33:36.452Z,2.63
2023-04-26T15:36:03.440Z,3.30
2023-04-26T15:38:30.254Z,2.80
2023-04-26T15:40:57.017Z,2.90
2023-04-26T15:43:26.042Z,2.77
2023-04-26T15:45:53.115Z,3.10
2023-04-26T15:48:19.935Z,2.97
2023-04-26T15:50:53.852Z,2.53
2023-04-26T15:53:25.294Z,2.57
2023-04-26T15:55:52.105Z,3.23
2023-04-26T15:58:19.029Z,2.57
2023-04-26T16:00:45.916Z,2.63
2023-04-26T16:03:12.818Z,2.70
2023-04-26T16:05:41.384Z,2.70
2023-04-26T16:08:08.131Z,2.83
2023-04-26T16:10:37.596Z,2.43
2023-04-26T16:13:05.152Z,2.70
2023-04-26T16:15:32.228Z,4.40
2023-04-26T16:17:59.121Z,3.03
2023-04-26T16:20:28.368Z,2.47
2023-04-26T16:22:57.262Z,2.63
2023-04-26T16:25:24.297Z,2.93
2023-04-26T16:27:52.824Z,2.63
2023-04-26T16:30:22.249Z,3.03
2023-04-26T16:32:49.122Z,2.70
2023-04-26T16:35:18.590Z,2.63
2023-04-26T16:37:48.344Z,2.50
2023-04-26T16:40:15.175Z,2.60
2023-04-26T16:42:44.645Z,2.83
2023-04-26T16:45:14.514Z,2.53
2023-04-26T16:47:43.004Z,2.60
2023-04-26T16:50:10.286Z,2.73
2023-04-26T16:52:37.627Z,3.30
2023-04-26T16:55:06.125Z,3.00
2023-04-26T16:57:33.166Z,2.40
2023-04-26T17:00:00.176Z,2.40
2023-04-26T17:02:29.387Z,2.87
2023-04-26T17:04:56.568Z,2.90
2023-04-26T17:07:23.452Z,2.47
2023-04-26T17:09:53.851Z,2.90
2023-04-26T17:12:20.617Z,3.20
2023-04-26T17:14:49.982Z,2.70
2023-04-26T17:17:16.752Z,3.30
2023-04-26T17:19:43.709Z,2.90
2023-04-26T17:22:12.619Z,3.00
2023-04-26T17:24:39.410Z,3.40
2023-04-26T17:27:06.259Z,3.97
2023-04-26T17:29:35.242Z,2.97
2023-04-26T17:32:04.495Z,2.70
2023-04-26T17:34:33.848Z,3.90
2023-04-26T17:37:03.028Z,3.63
2023-04-26T17:39:29.841Z,3.00
2023-04-26T17:41:56.798Z,3.00
2023-04-26T17:44:23.678Z,2.80
2023-04-26T17:46:52.733Z,2.60
2023-04-26T17:49:21.437Z,3.20
2023-04-26T17:51:48.189Z,2.60
2023-04-26T17:54:15.005Z,3.30
2023-04-26T17:56:43.474Z,3.33
2023-04-26T17:59:10.333Z,2.80
2023-04-26T18:01:37.238Z,3.20
2023-04-26T18:04:06.529Z,3.10
2023-04-26T18:06:36.773Z,3.00
2023-04-26T18:09:04.958Z,2.80
2023-04-26T18:11:34.285Z,3.60
2023-04-26T18:14:05.851Z,2.83
2023-04-26T18:16:32.685Z,3.30
2023-04-26T18:18:59.463Z,3.20
2023-04-26T18:21:26.756Z,2.67
2023-04-26T18:23:53.532Z,3.70
2023-04-26T18:26:20.317Z,3.23
2023-04-26T18:28:47.211Z,3.10
2023-04-26T18:31:14.056Z,3.23
2023-04-26T18:33:40.898Z,2.37
2023-04-26T18:36:07.883Z,2.87
2023-04-26T18:38:36.833Z,3.77
2023-04-26T18:41:03.639Z,2.90
2023-04-26T18:43:32.615Z,3.40
2023-04-26T18:46:03.763Z,3.27
2023-04-26T18:48:32.682Z,3.00
2023-04-26T18:50:59.479Z,3.03
2023-04-26T18:53:26.278Z,3.70
2023-04-26T18:55:56.315Z,3.50
2023-04-26T18:58:23.123Z,3.90
2023-04-26T19:00:50.209Z,3.23
2023-04-26T19:03:17.549Z,3.63
2023-04-26T19:05:44.543Z,3.90
2023-04-26T19:08:12.511Z,3.33
2023-04-26T19:10:39.306Z,3.33
2023-04-26T19:13:06.359Z,3.20
2023-04-26T19:15:34.217Z,3.60
2023-04-26T19:18:05.693Z,3.23
2023-04-26T19:20:32.515Z,3.87
2023-04-26T19:23:01.433Z,3.83
2023-04-26T19:25:30.426Z,4.30
2023-04-26T19:27:57.445Z,4.17
2023-04-26T19:30:24.249Z,4.40
2023-04-26T19:32:51.138Z,4.93
2023-04-26T19:35:17.974Z,4.80
2023-04-26T19:37:44.820Z,4.67
2023-04-26T19:40:14.205Z,5.10
2023-04-26T19:42:41.072Z,4.67
2023-04-26T19:45:10.676Z,5.13
2023-04-26T19:47:40.408Z,5.03
2023-04-26T19:50:09.846Z,4.47
2023-04-26T19:52:39.199Z,5.30
2023-04-26T19:55:11.511Z,5.40
2023-04-26T19:57:38.670Z,5.87
2023-04-26T20:00:10.030Z,6.47
2023-04-26T20:02:36.972Z,6.93
2023-04-26T20:05:07.070Z,6.83
2023-04-26T20:07:36.182Z,6.77
2023-04-26T20:10:05.215Z,7.43
2023-04-26T20:12:35.503Z,7.83
2023-04-26T20:15:04.437Z,8.13
2023-04-26T20:17:31.374Z,7.43
2023-04-26T20:20:00.433Z,8.13
2023-04-26T20:22:27.205Z,8.00
2023-04-26T20:24:56.236Z,8.67
2023-04-26T20:27:23.010Z,8.90
2023-04-26T20:29:52.197Z,9.27
2023-04-26T20:32:19.010Z,8.13
2023-04-26T20:34:45.816Z,9.17
2023-04-26T20:37:14.975Z,8.43
2023-04-26T20:39:41.756Z,8.90
2023-04-26T20:42:08.576Z,8.30
2023-04-26T20:44:37.609Z,8.33
2023-04-26T20:47:04.682Z,8.30
2023-04-26T20:49:31.492Z,8.40
2023-04-26T20:51:58.236Z,7.73
2023-04-26T20:54:25.065Z,8.10
2023-04-26T20:56:51.854Z,7.70
2023-04-26T20:59:18.639Z,8.03
2023-04-26T21:01:45.590Z,8.13
2023-04-26T21:04:14.812Z,7.87
2023-04-26T21:06:41.719Z,8.33
2023-04-26T21:09:11.704Z,7.87
2023-04-26T21:11:40.948Z,7.97
2023-04-26T21:14:10.266Z,8.40
2023-04-26T21:16:39.238Z,8.23
2023-04-26T21:19:06.149Z,8.87
2023-04-26T21:21:33.168Z,7.70
2023-04-26T21:24:00.938Z,9.97
2023-04-26T21:26:27.781Z,8.33
2023-04-26T21:28:54.603Z,9.33
2023-04-26T21:31:23.724Z,8.40
2023-04-26T21:33:50.857Z,8.80
2023-04-26T21:36:17.734Z,8.97
2023-04-26T21:38:44.578Z,9.27
2023-04-26T21:41:11.408Z,8.70
2023-04-26T21:43:38.244Z,8.63
2023-04-26T21:46:08.109Z,8.53
2023-04-26T21:48:39.294Z,9.00
2023-04-26T21:51:08.343Z,8.23
2023-04-26T21:53:37.115Z,8.53
2023-04-26T21:56:06.155Z,7.70
2023-04-26T21:58:33.409Z,8.13
2023-04-26T22:01:16.742Z,7.97
2023-04-26T22:03:46.213Z,8.83
2023-04-26T22:06:15.430Z,9.00
2023-04-26T22:08:42.243Z,8.53
2023-04-26T22:11:09.022Z,7.80
2023-04-26T22:13:35.882Z,7.37
2023-04-26T22:16:02.764Z,7.60
2023-04-26T22:18:29.828Z,7.03
2023-04-26T22:20:56.656Z,6.77
2023-04-26T22:23:25.832Z,7.07
2023-04-26T22:25:52.590Z,6.47
2023-04-26T22:28:19.375Z,7.33
2023-04-26T22:30:46.872Z,6.97
2023-04-26T22:33:16.692Z,6.50
2023-04-26T22:35:45.679Z,7.10
2023-04-26T22:38:12.501Z,6.90
2023-04-26T22:40:42.026Z,6.50
2023-04-26T22:43:08.872Z,7.47
2023-04-26T22:45:35.770Z,6.93
2023-04-26T22:48:05.162Z,7.27
2023-04-26T22:50:34.503Z,7.67
2023-04-26T22:53:01.332Z,7.73
2023-04-26T22:55:30.969Z,7.60
2023-04-26T22:57:57.723Z,7.07
2023-04-26T23:00:25.904Z,7.90
2023-04-26T23:02:52.917Z,7.53
2023-04-26T23:05:20.040Z,7.60
2023-04-26T23:07:46.856Z,8.37
2023-04-26T23:10:13.846Z,7.73
2023-04-26T23:12:41.286Z,8.37
2023-04-26T23:15:11.739Z,8.07
2023-04-26T23:17:43.228Z,8.43
2023-04-26T23:20:12.989Z,8.43
2023-04-26T23:22:42.801Z,9.10
2023-04-26T23:25:12.265Z,8.23
2023-04-26T23:27:39.149Z,8.37
2023-04-26T23:30:06.830Z,8.57
2023-04-26T23:32:35.896Z,8.57
2023-04-26T23:35:02.975Z,8.40
2023-04-26T23:37:29.942Z,8.23
2023-04-26T23:39:56.818Z,7.77
2023-04-26T23:42:25.869Z,8.13
2023-04-26T23:44:57.509Z,8.27
2023-04-26T23:47:24.299Z,7.57
2023-04-26T23:49:53.218Z,8.33
2023-04-26T23:52:20.105Z,8.37
2023-04-26T23:54:46.988Z,8.50
2023-04-26T23:57:16.189Z,8.40
2023-04-26T23:59:45.618Z,8.13
